Kezdőlap
METAR-TAF:

METAR-TAF

Repülőterek :

Szingapúr, Szingapúr

földrajzi szélesség: 01-25-08N, földrajzi hosszúság: 103-51-57E, magasság: 11 m

Jelenlegi meteorológiai megfigyelések

A jelentés 32 perccel ezelõtt készült, 22:00 UTC
Dél-délkeleti szél 5 kt, kelet-délkeleti és déli között változik
Hőmérséklet 29°C
Páratartalom 79%
Légköri nyomás 1009 hPa
Látótávolság 10 km, vagy több
Kevés felhő 1800 lábon
Szakadozott felhőzet 16000 lábon

METAR: WSSL 212200Z 15005KT 110V170 9999 FEW018 BKN160 29/25 Q1009

Idő: 06:32 (22:32 UTC)

Előrejelzés

A jelentés 5 órával és 32 perccel ezelõtt készült, 17:00 UTC
Az előrejelzés 21-én 18 óra UTC és 23-én 00 óra UTC között érvényes
Dél-délkeleti szél 10 kt
Látótávolság 10 km, vagy több
Kevés felhő 1500 lábon
Szórványos felhőzet 2000 lábon

TAF: WSSL 211700Z 2118/2300 16010KT 9999 FEW015 SCT020

Meteorológiai megfigyelések és előrejelzések több, mint 4000 repülőtéren (METAR és TAF jelentéseket).

A térképen piros és sárga pontok jelzik az elérhető meteorológiai állomásokat.

Mozgassa az egeret a pont fölött, hogy megjelenjen az állomás neve.

Azután kattintson az időjárási megfigyelések és előrejelzések megtekintéséhez.

A térkép megváltoztatása: kattintson a fekete keresztel jelölt zöld gombra ráközelítéshez, a vonallal jelölt zöld gombra távolításhoz, vagy a zöld nyilakra a szomszédos térképek eléréséhez.


METAR-TAF: